Time;durP1;ratioP1;P1;durP2;ratioP2;P2;SDS_P1;SDS_P2;PMS_P1;PMS_P2;Temp;Humidity;BMP_temperature;BMP_pressure;BME280_temperature;BME280_humidity;BME280_pressure;Samples;Min_cycle;Max_cycle;Signal;HPM_P1;HPM_P2
2023/01/12 00:02:35;;;;;;;0.00;0.00;;;;;;;9.69;100.00;101133.47;10456243;28;20041;-87
2023/01/12 00:07:36;;;;;;;0.35;0.05;;;;;;;9.62;100.00;101158.13;10433537;28;20045;-85
2023/01/12 00:12:38;;;;;;;0.00;0.00;;;;;;;9.64;100.00;101181.34;10445413;28;20052;-88
2023/01/12 00:17:39;;;;;;;0.00;0.00;;;;;;;9.72;100.00;101184.16;10443383;28;20115;-87
2023/01/12 00:22:41;;;;;;;0.00;0.00;;;;;;;9.67;100.00;101171.13;10418543;28;20041;-89
2023/01/12 00:27:42;;;;;;;0.10;0.10;;;;;;;9.79;100.00;101168.97;10422173;28;20044;-86
2023/01/12 00:32:44;;;;;;;0.10;0.08;;;;;;;9.89;100.00;101184.72;10417745;28;20137;-89
2023/01/12 00:37:46;;;;;;;0.00;0.00;;;;;;;9.88;100.00;101195.84;10438147;28;20084;-87
2023/01/12 00:48:11;;;;;;;0.03;0.03;;;;;;;10.14;100.00;101173.53;10417984;28;20053;-85
2023/01/12 00:53:13;;;;;;;0.00;0.00;;;;;;;10.37;100.00;101140.81;10436674;28;20045;-85
2023/01/12 00:58:14;;;;;;;0.20;0.10;;;;;;;10.36;100.00;101118.44;10415887;28;20045;-87
2023/01/12 01:03:16;;;;;;;3.58;0.47;;;;;;;10.19;100.00;101086.13;10415177;28;20447;-87
2023/01/12 01:08:17;;;;;;;10.90;1.02;;;;;;;10.48;100.00;101113.66;10428153;28;20124;-87
2023/01/12 01:13:19;;;;;;;0.28;0.20;;;;;;;10.33;100.00;101105.44;10428811;28;20033;-87
2023/01/12 01:18:20;;;;;;;0.10;0.10;;;;;;;10.53;100.00;101105.22;10416008;28;20049;-86
2023/01/12 01:23:24;;;;;;;0.35;0.10;;;;;;;10.09;100.00;101111.59;10454711;28;20184;-88
2023/01/12 01:28:25;;;;;;;0.00;0.00;;;;;;;10.39;100.00;101162.31;10438143;28;20037;-87
2023/01/12 01:33:27;;;;;;;0.10;0.10;;;;;;;10.20;100.00;101188.28;10439015;28;20477;-76
2023/01/12 01:38:29;;;;;;;0.10;0.10;;;;;;;10.20;100.00;101216.63;10390684;28;20050;-76
2023/01/12 01:43:51;;;;;;;0.05;0.05;;;;;;;10.10;100.00;101280.69;10443322;28;20045;-77
2023/01/12 01:48:53;;;;;;;1.92;0.52;;;;;;;9.93;100.00;101307.56;10422801;28;20501;-76
2023/01/12 01:53:55;;;;;;;0.52;0.25;;;;;;;9.91;100.00;101306.63;10396875;28;20555;-76
2023/01/12 01:59:05;;;;;;;0.00;0.00;;;;;;;9.92;100.00;101306.66;10415252;28;20050;-85
2023/01/12 02:04:07;;;;;;;0.75;0.57;;;;;;;10.25;100.00;101315.50;10414874;28;20116;-87
2023/01/12 02:09:15;;;;;;;0.03;0.03;;;;;;;9.95;100.00;101319.66;10439779;28;20392;-87
2023/01/12 02:20:15;;;;;;;1.27;0.20;;;;;;;9.98;100.00;101355.78;10396735;28;20087;-81
2023/01/12 02:25:29;;;;;;;2.42;0.77;;;;;;;9.71;100.00;101326.50;10407136;28;20428;-81
2023/01/12 02:30:59;;;;;;;0.10;0.10;;;;;;;9.99;100.00;101354.09;10406017;28;20042;-80
2023/01/12 02:36:27;;;;;;;0.32;0.30;;;;;;;9.86;100.00;101341.63;10391429;28;20499;-81
2023/01/12 02:47:05;;;;;;;0.30;0.20;;;;;;;10.67;100.00;101784.22;10448353;28;20060;-80
2023/01/12 02:52:12;;;;;;;0.30;0.30;;;;;;;10.44;100.00;102536.50;10434380;28;20029;-80
2023/01/12 02:57:15;;;;;;;0.00;0.00;;;;;;;10.98;100.00;102589.97;10429338;28;20064;-80
2023/01/12 03:02:20;;;;;;;0.25;0.25;;;;;;;11.11;100.00;102520.13;10445798;28;20072;-80
2023/01/12 03:07:56;;;;;;;0.00;0.00;;;;;;;10.88;100.00;102319.56;10431133;28;20041;-80
2023/01/12 03:13:05;;;;;;;3.92;1.38;;;;;;;11.36;100.00;102018.16;10422877;28;20051;-86
2023/01/12 03:18:29;;;;;;;0.00;0.00;;;;;;;9.89;100.00;102134.47;10426480;28;20041;-83
2023/01/12 03:23:38;;;;;;;0.40;0.20;;;;;;;9.77;100.00;102166.53;10445963;28;20527;-83
2023/01/12 03:28:45;;;;;;;0.15;0.15;;;;;;;9.58;100.00;102166.41;10445730;28;20125;-80
2023/01/12 03:33:50;;;;;;;0.50;0.17;;;;;;;9.42;100.00;102144.19;10433804;28;20037;-79
2023/01/12 03:39:06;;;;;;;0.63;0.47;;;;;;;9.25;100.00;102228.19;10409402;28;20053;-79
2023/01/12 03:44:15;;;;;;;0.82;0.15;;;;;;;10.14;100.00;102285.91;10435638;28;20041;-81
2023/01/12 03:49:28;;;;;;;0.25;0.20;;;;;;;9.53;100.00;102158.50;10438638;28;20099;-80
2023/01/12 03:54:33;;;;;;;0.10;0.10;;;;;;;9.39;100.00;102126.00;10429511;28;20107;-81
2023/01/12 03:59:34;;;;;;;0.10;0.10;;;;;;;10.14;100.00;103435.56;10415054;28;20121;-80
2023/01/12 04:04:36;;;;;;;0.73;0.20;;;;;;;10.97;100.00;104760.22;10434517;28;20064;-80
2023/01/12 04:09:38;;;;;;;0.00;0.00;;;;;;;10.95;100.00;105277.81;10443394;28;20041;-80
2023/01/12 04:14:41;;;;;;;1.10;1.08;;;;;;;10.81;100.00;105608.41;10405394;28;20049;-81
2023/01/12 04:19:43;;;;;;;0.00;0.00;;;;;;;10.55;100.00;106141.53;10401987;28;20042;-80
2023/01/12 04:24:51;;;;;;;0.00;0.00;;;;;;;10.57;100.00;108528.41;10396753;28;20081;-80
2023/01/12 04:29:53;;;;;;;7.43;0.28;;;;;;;10.39;100.00;110059.59;10378590;28;20046;-80
2023/01/12 04:34:55;;;;;;;0.00;0.00;;;;;;;10.47;100.00;111129.16;10403707;28;20072;-80
2023/01/12 04:39:56;;;;;;;1.15;0.38;;;;;;;10.55;100.00;111514.47;10411725;28;20099;-81
2023/01/12 04:44:58;;;;;;;0.00;0.00;;;;;;;10.95;100.00;112333.91;10415588;28;20045;-81
2023/01/12 04:50:04;;;;;;;0.00;0.00;;;;;;;10.90;100.00;114697.75;10416269;28;20592;-81
2023/01/12 04:55:06;;;;;;;0.25;0.25;;;;;;;10.77;100.00;120687.75;10403651;28;20111;-79
2023/01/12 05:00:08;;;;;;;0.00;0.00;;;;;;;-146.30;100.00;58188.94;10404237;28;20434;-79
2023/01/12 05:05:10;;;;;;;0.00;0.00;;;;;;;-146.30;100.00;58188.94;10407739;28;20040;-80
2023/01/12 05:10:24;;;;;;;0.00;0.00;;;;;;;-146.30;100.00;58188.94;10404043;28;20133;-80
2023/01/12 05:15:25;;;;;;;0.17;0.17;;;;;;;-146.30;100.00;58188.94;10421566;28;20079;-80
2023/01/12 05:20:27;;;;;;;0.20;0.20;;;;;;;-146.30;100.00;58188.94;10399512;28;20128;-80
2023/01/12 05:25:33;;;;;;;0.10;0.10;;;;;;;-146.30;100.00;58188.94;10377693;28;20386;-80
2023/01/12 05:30:35;;;;;;;0.00;0.00;;;;;;;-146.30;100.00;58188.94;10402291;28;20065;-81
2023/01/12 05:35:37;;;;;;;0.00;0.00;;;;;;;-146.30;100.00;58188.94;10422248;28;20046;-81
2023/01/12 05:40:38;;;;;;;0.00;0.00;;;;;;;-146.30;100.00;58188.94;10414711;28;20033;-80
2023/01/12 05:45:51;;;;;;;0.00;0.00;;;;;;;-146.30;100.00;58188.94;10420772;28;20095;-80
2023/01/12 05:51:03;;;;;;;0.20;0.00;;;;;;;-146.30;100.00;58188.94;10408867;28;20480;-79
2023/01/12 05:56:08;;;;;;;0.10;0.10;;;;;;;-146.30;100.00;58188.94;10412878;28;20037;-79
2023/01/12 06:01:10;;;;;;;0.00;0.00;;;;;;;-146.30;100.00;58188.94;10424687;28;20056;-76
2023/01/12 06:06:11;;;;;;;0.00;0.00;;;;;;;-146.30;100.00;58188.94;10407823;28;20119;-76
2023/01/12 06:16:37;;;;;;;0.00;0.00;;;;;;;-146.30;100.00;58188.94;10421575;28;20041;-76
2023/01/12 06:21:39;;;;;;;0.00;0.00;;;;;;;-146.30;100.00;58188.94;10420543;28;20049;-76
2023/01/12 06:26:43;;;;;;;28.42;0.52;;;;;;;-146.30;100.00;58188.94;10421394;28;20516;-77
2023/01/12 06:31:45;;;;;;;0.00;0.00;;;;;;;-146.30;100.00;58188.94;10419761;28;20461;-76
2023/01/12 06:36:48;;;;;;;0.00;0.00;;;;;;;-146.30;100.00;58188.94;10420154;28;20480;-76
2023/01/12 06:47:10;;;;;;;0.00;0.00;;;;;;;-146.30;100.00;58188.94;10420053;28;20091;-77
2023/01/12 06:52:11;;;;;;;0.70;0.47;;;;;;;-146.30;100.00;58188.94;10421383;28;20076;-75
2023/01/12 06:57:16;;;;;;;7.57;0.15;;;;;;;-146.30;100.00;58188.94;10387084;28;20100;-76
2023/01/12 07:02:18;;;;;;;0.10;0.10;;;;;;;-146.30;100.00;58188.94;10377820;28;20088;-77
2023/01/12 07:07:20;;;;;;;1.38;0.40;;;;;;;-146.30;100.00;58188.94;10399214;28;20076;-78
2023/01/12 07:12:22;;;;;;;0.38;0.32;;;;;;;-146.30;100.00;58188.94;10410033;28;20046;-76
2023/01/12 07:17:24;;;;;;;0.10;0.10;;;;;;;-146.30;100.00;58188.94;10401759;28;20119;-76
2023/01/12 07:22:25;;;;;;;0.80;0.17;;;;;;;-146.30;100.00;58188.94;10418566;28;20045;-77
2023/01/12 07:27:27;;;;;;;0.00;0.00;;;;;;;-146.30;100.00;58188.94;10458858;28;20049;-77
2023/01/12 07:32:29;;;;;;;0.00;0.00;;;;;;;-146.30;100.00;58188.94;10428014;28;20081;-78
2023/01/12 07:37:30;;;;;;;0.00;0.00;;;;;;;-146.30;100.00;58188.94;10412467;28;20069;-77
2023/01/12 07:42:32;;;;;;;0.63;0.25;;;;;;;-146.30;100.00;58188.94;10416975;28;20045;-77
2023/01/12 07:47:34;;;;;;;0.00;0.00;;;;;;;-146.30;100.00;58188.94;10417146;28;20382;-77
2023/01/12 07:52:36;;;;;;;0.00;0.00;;;;;;;-146.30;100.00;58188.94;10416891;28;20077;-77
2023/01/12 07:57:38;;;;;;;0.15;0.00;;;;;;;-146.30;100.00;58188.94;10411059;28;20089;-75
2023/01/12 08:02:39;;;;;;;0.00;0.00;;;;;;;-146.30;100.00;58188.94;10395327;28;20049;-75
2023/01/12 08:07:41;;;;;;;0.47;0.20;;;;;;;-146.30;100.00;58188.94;10398178;28;20103;-77
2023/01/12 08:12:43;;;;;;;0.30;0.30;;;;;;;-146.30;100.00;58188.94;10414705;28;20076;-77
2023/01/12 08:17:59;;;;;;;0.00;0.00;;;;;;;-146.30;100.00;58188.94;10415016;28;20050;-77
2023/01/12 08:23:15;;;;;;;0.00;0.00;;;;;;;-146.30;100.00;58188.94;10412097;28;20041;-77
2023/01/12 08:28:20;;;;;;;0.00;0.00;;;;;;;-146.30;100.00;58188.94;10387241;28;20398;-77
2023/01/12 08:33:22;;;;;;;0.00;0.00;;;;;;;-146.30;100.00;58188.94;10422411;28;20497;-78
2023/01/12 08:38:23;;;;;;;0.00;0.00;;;;;;;-146.30;100.00;58188.94;10413282;28;20057;-77
2023/01/12 08:48:46;;;;;;;0.73;0.20;;;;;;;-146.30;100.00;58188.94;10421838;28;20124;-80
2023/01/12 08:53:47;;;;;;;0.00;0.00;;;;;;;-146.30;100.00;58188.94;10422150;28;20037;-80
2023/01/12 08:58:49;;;;;;;0.05;0.05;;;;;;;-146.30;100.00;58188.94;10412454;28;20102;-80
2023/01/12 09:03:51;;;;;;;12.50;2.72;;;;;;;-146.30;100.00;58188.94;10408140;28;20060;-79
2023/01/12 09:08:54;;;;;;;0.00;0.00;;;;;;;-146.30;100.00;58188.94;10429898;28;20128;-80
2023/01/12 09:13:57;;;;;;;0.05;0.05;;;;;;;-146.30;100.00;58188.94;10419321;28;20405;-79
2023/01/12 09:19:00;;;;;;;0.17;0.10;;;;;;;-146.30;100.00;58188.94;10407833;28;20417;-80
2023/01/12 09:24:01;;;;;;;0.00;0.00;;;;;;;-146.30;100.00;58188.94;10440429;28;20048;-81
2023/01/12 09:29:03;;;;;;;0.00;0.00;;;;;;;-146.30;100.00;58188.94;10430861;28;20095;-81
2023/01/12 09:34:05;;;;;;;0.15;0.10;;;;;;;-146.30;100.00;58188.94;10428611;28;20049;-80
2023/01/12 09:39:07;;;;;;;0.10;0.10;;;;;;;-146.30;100.00;58188.94;10433809;28;20051;-81
2023/01/12 09:49:57;;;;;;;4.13;0.22;;;;;;;-146.30;100.00;58188.94;10438033;28;20053;-80
2023/01/12 09:55:31;;;;;;;;;;;;;;;-146.30;100.00;58188.94;10433039;28;20514;-81
2023/01/12 10:00:33;;;;;;;0.00;0.00;;;;;;;-146.30;100.00;58188.94;10431585;28;19967;-81
2023/01/12 10:05:54;;;;;;;0.00;0.00;;;;;;;-146.30;100.00;58188.94;10424829;28;20087;-81
2023/01/12 10:11:04;;;;;;;0.00;0.00;;;;;;;-146.30;100.00;58188.94;10417810;28;20449;-80
2023/01/12 10:16:16;;;;;;;0.10;0.10;;;;;;;-146.30;100.00;58188.94;10415273;28;20292;-81
2023/01/12 10:21:22;;;;;;;0.10;0.10;;;;;;;-146.30;100.00;58188.94;10398099;28;20044;-81
2023/01/12 10:26:28;;;;;;;0.00;0.00;;;;;;;-146.30;100.00;58188.94;10417969;28;20103;-81
2023/01/12 10:31:32;;;;;;;0.00;0.00;;;;;;;-146.30;100.00;58188.94;10408924;28;20489;-81
2023/01/12 10:36:40;;;;;;;0.10;0.10;;;;;;;-146.30;100.00;58188.94;10414087;28;20084;-80
2023/01/12 10:41:43;;;;;;;0.00;0.00;;;;;;;-146.30;100.00;58188.94;10419550;28;20378;-81
2023/01/12 10:47:08;;;;;;;0.00;0.00;;;;;;;-146.30;100.00;58188.94;10413579;28;20088;-80
2023/01/12 10:52:33;;;;;;;0.00;0.00;;;;;;;-146.30;100.00;58188.94;10414147;28;20117;-81
2023/01/12 10:57:34;;;;;;;0.00;0.00;;;;;;;-146.30;100.00;58188.94;10424115;28;20085;-83
2023/01/12 11:02:43;;;;;;;0.00;0.00;;;;;;;-146.30;100.00;58188.94;10426684;28;20045;-82
2023/01/12 11:07:50;;;;;;;0.00;0.00;;;;;;;-146.30;100.00;58188.94;10426109;28;20056;-83
2023/01/12 11:13:02;;;;;;;0.00;0.00;;;;;;;-146.30;100.00;58188.94;10428924;28;20127;-83
2023/01/12 11:18:12;;;;;;;0.00;0.00;;;;;;;-146.30;100.00;58188.94;10420296;28;20507;-81
2023/01/12 11:23:26;;;;;;;0.00;0.00;;;;;;;-146.30;100.00;58188.94;10447702;28;20102;-82
2023/01/12 11:28:43;;;;;;;0.00;0.00;;;;;;;-146.30;100.00;58188.94;10435042;28;20111;-83
2023/01/12 11:33:57;;;;;;;0.00;0.00;;;;;;;-146.30;100.00;58188.94;10431616;28;20091;-82
2023/01/12 11:39:11;;;;;;;0.10;0.10;;;;;;;-146.30;100.00;58188.94;10414532;28;20055;-83
2023/01/12 11:44:19;;;;;;;0.00;0.00;;;;;;;-146.30;100.00;58188.94;10456505;28;20110;-82
2023/01/12 11:49:52;;;;;;;0.00;0.00;;;;;;;-146.30;100.00;58188.94;10432846;28;20132;-83
2023/01/12 11:54:58;;;;;;;0.00;0.00;;;;;;;-146.30;100.00;58188.94;10433545;28;20046;-84
2023/01/12 12:00:43;;;;;;;0.00;0.00;;;;;;;-146.30;100.00;58188.94;10429883;28;20057;-84
2023/01/12 12:06:02;;;;;;;0.00;0.00;;;;;;;-146.30;100.00;58188.94;10445850;28;20106;-83
2023/01/12 12:11:05;;;;;;;0.03;0.03;;;;;;;-146.30;100.00;58188.94;10447127;28;20053;-83
2023/01/12 12:16:19;;;;;;;0.00;0.00;;;;;;;-146.30;100.00;58188.94;10424462;28;20554;-84
2023/01/12 12:21:29;;;;;;;0.20;0.17;;;;;;;-146.30;100.00;58188.94;10423159;28;20041;-83
2023/01/12 12:26:39;;;;;;;0.63;0.20;;;;;;;-146.30;100.00;58188.94;10437224;28;20409;-83
2023/01/12 12:31:47;;;;;;;;;;;;;;;-146.30;100.00;58188.94;10404203;28;20390;-84
2023/01/12 12:37:19;;;;;;;0.00;0.00;;;;;;;-146.30;100.00;58188.94;10404464;28;19925;-84
2023/01/12 12:48:31;;;;;;;0.00;0.00;;;;;;;-146.30;100.00;58188.94;10421981;28;20068;-84
2023/01/12 12:53:44;;;;;;;0.00;0.00;;;;;;;-146.30;100.00;58188.94;10407220;28;20055;-81
2023/01/12 12:58:50;;;;;;;0.32;0.17;;;;;;;-146.30;100.00;58188.94;10421412;28;20049;-80
2023/01/12 13:03:57;;;;;;;0.00;0.00;;;;;;;-146.30;100.00;58188.94;10409470;28;20045;-80
2023/01/12 13:09:11;;;;;;;0.00;0.00;;;;;;;-146.30;100.00;58188.94;10409877;28;20048;-80
2023/01/12 13:14:27;;;;;;;0.00;0.00;;;;;;;-146.30;100.00;58188.94;10408464;28;20029;-80
2023/01/12 13:19:40;;;;;;;3.03;0.20;;;;;;;-146.30;100.00;58188.94;10405539;28;20046;-81
2023/01/12 13:24:42;;;;;;;0.00;0.00;;;;;;;-146.30;100.00;58188.94;10409423;28;20428;-80
2023/01/12 13:29:44;;;;;;;0.00;0.00;;;;;;;-146.30;100.00;58188.94;10421090;28;20486;-80
2023/01/12 13:34:46;;;;;;;0.00;0.00;;;;;;;-146.30;100.00;58188.94;10406752;28;20168;-80
2023/01/12 13:40:00;;;;;;;0.00;0.00;;;;;;;-146.30;100.00;58188.94;10411391;28;20050;-80
2023/01/12 13:45:02;;;;;;;0.00;0.00;;;;;;;-146.30;100.00;58188.94;10412127;28;20567;-79
2023/01/12 13:50:05;;;;;;;0.00;0.00;;;;;;;-146.30;100.00;58188.94;10405967;28;20049;-80
2023/01/12 13:55:21;;;;;;;0.00;0.00;;;;;;;-146.30;100.00;58188.94;10408411;28;20124;-81
2023/01/12 14:00:23;;;;;;;0.00;0.00;;;;;;;-146.30;100.00;58188.94;10406354;28;20382;-80
2023/01/12 14:05:43;;;;;;;0.00;0.00;;;;;;;-146.30;100.00;58188.94;10408968;28;20128;-80
2023/01/12 14:11:15;;;;;;;0.00;0.00;;;;;;;-146.30;100.00;58188.94;10415827;28;20045;-80
2023/01/12 14:21:42;;;;;;;0.00;0.00;;;;;;;-146.30;100.00;58188.94;10436951;28;20037;-84
2023/01/12 14:26:44;;;;;;;0.00;0.00;;;;;;;-146.30;100.00;58188.94;10441815;28;20051;-84
2023/01/12 14:31:50;;;;;;;0.00;0.00;;;;;;;-146.30;100.00;58188.94;10441859;28;20068;-83
2023/01/12 14:36:52;;;;;;;0.00;0.00;;;;;;;-146.30;100.00;58188.94;10456973;28;20029;-85
2023/01/12 14:47:30;;;;;;;0.00;0.00;;;;;;;-146.30;100.00;58188.94;10411914;28;20141;-80
2023/01/12 14:52:35;;;;;;;0.00;0.00;;;;;;;-146.30;100.00;58188.94;10418241;28;20112;-80
2023/01/12 14:57:47;;;;;;;0.00;0.00;;;;;;;-146.30;100.00;58188.94;10419635;28;20072;-81
2023/01/12 15:02:52;;;;;;;0.00;0.00;;;;;;;-146.30;100.00;58188.94;10414206;28;20041;-80
2023/01/12 15:07:55;;;;;;;0.32;0.25;;;;;;;-146.30;100.00;58188.94;10387241;28;20145;-80
2023/01/12 15:13:19;;;;;;;0.10;0.10;;;;;;;-146.30;100.00;58188.94;10391637;28;20042;-80
2023/01/12 15:29:01;;;;;;;0.00;0.00;;;;;;;-146.30;100.00;58188.94;10412503;28;20136;-80
2023/01/12 15:34:04;;;;;;;0.00;0.00;;;;;;;-146.30;100.00;58188.94;10394241;28;20343;-81
2023/01/12 15:39:11;;;;;;;0.00;0.00;;;;;;;-146.30;100.00;58188.94;10413575;28;20046;-80
2023/01/12 15:44:15;;;;;;;0.10;0.10;;;;;;;-146.30;100.00;58188.94;10415592;28;20128;-81
2023/01/12 15:49:17;;;;;;;0.00;0.00;;;;;;;-146.30;100.00;58188.94;10415054;28;20129;-81
2023/01/12 15:54:20;;;;;;;0.10;0.10;;;;;;;-146.30;100.00;58188.94;10413760;28;20393;-81
2023/01/12 15:59:22;;;;;;;0.00;0.00;;;;;;;-146.30;100.00;58188.94;10416712;28;20103;-81
2023/01/12 16:04:24;;;;;;;0.00;0.00;;;;;;;-146.30;100.00;58188.94;10414824;28;20034;-81
2023/01/12 16:09:46;;;;;;;0.00;0.00;;;;;;;-146.30;100.00;58188.94;10413623;28;20041;-80
2023/01/12 16:14:48;;;;;;;0.40;0.10;;;;;;;-146.30;100.00;58188.94;10410735;28;20037;-82
2023/01/12 16:19:50;;;;;;;0.10;0.10;;;;;;;-146.30;100.00;58188.94;10391680;28;20553;-81
2023/01/12 16:24:54;;;;;;;0.10;0.10;;;;;;;-146.30;100.00;58188.94;10394920;28;20461;-81
2023/01/12 16:29:55;;;;;;;0.00;0.00;;;;;;;-146.30;100.00;58188.94;10390699;28;20572;-81
2023/01/12 16:34:57;;;;;;;0.00;0.00;;;;;;;-146.30;100.00;58188.94;10401300;28;20062;-81
2023/01/12 16:39:59;;;;;;;0.00;0.00;;;;;;;-146.30;100.00;58188.94;10394386;28;20123;-81
2023/01/12 16:45:02;;;;;;;0.20;0.17;;;;;;;-146.30;100.00;58188.94;10390578;28;20041;-82
2023/01/12 16:50:04;;;;;;;0.03;0.03;;;;;;;-146.30;100.00;58188.94;10395825;28;20045;-82
2023/01/12 16:55:06;;;;;;;0.00;0.00;;;;;;;-146.30;100.00;58188.94;10414405;28;20055;-82
2023/01/12 17:00:08;;;;;;;0.03;0.03;;;;;;;-146.30;100.00;58188.94;10411945;28;20508;-82
2023/01/12 17:05:11;;;;;;;0.10;0.10;;;;;;;-146.30;100.00;58188.94;10417792;28;20037;-82
2023/01/12 17:10:14;;;;;;;0.52;0.47;;;;;;;-146.30;100.00;58188.94;10421306;28;20049;-81
2023/01/12 17:15:15;;;;;;;0.00;0.00;;;;;;;-146.30;100.00;58188.94;10411254;28;20090;-81
2023/01/12 17:20:18;;;;;;;0.03;0.03;;;;;;;-146.30;100.00;58188.94;10418990;28;20061;-81
2023/01/12 17:25:20;;;;;;;0.38;0.15;;;;;;;-146.30;100.00;58188.94;10444615;28;20041;-84
2023/01/12 17:30:21;;;;;;;0.03;0.03;;;;;;;-146.30;100.00;58188.94;10453983;28;20528;-86
2023/01/12 17:35:26;;;;;;;0.30;0.20;;;;;;;-146.30;100.00;58188.94;10428475;28;20140;-87
2023/01/12 17:40:28;;;;;;;0.20;0.20;;;;;;;-146.30;100.00;58188.94;10435202;28;20049;-82
2023/01/12 17:45:30;;;;;;;0.20;0.20;;;;;;;-146.30;100.00;58188.94;10430445;28;20095;-83
2023/01/12 17:50:32;;;;;;;0.20;0.10;;;;;;;-146.30;100.00;58188.94;10419201;28;20045;-82
2023/01/12 17:55:37;;;;;;;0.10;0.10;;;;;;;-146.30;100.00;58188.94;10439321;28;20044;-81
2023/01/12 18:00:49;;;;;;;0.17;0.10;;;;;;;-146.30;100.00;58188.94;10443988;28;20048;-82
2023/01/12 18:05:50;;;;;;;0.00;0.00;;;;;;;-146.30;100.00;58188.94;10442274;28;20044;-82
2023/01/12 18:11:07;;;;;;;0.00;0.00;;;;;;;-146.30;100.00;58188.94;10418960;28;20049;-81
2023/01/12 18:16:13;;;;;;;0.05;0.05;;;;;;;-146.30;100.00;58188.94;10432754;28;20179;-82
2023/01/12 18:21:20;;;;;;;0.08;0.08;;;;;;;-146.30;100.00;58188.94;10453737;28;20041;-82
2023/01/12 18:26:24;;;;;;;0.20;0.20;;;;;;;-146.30;100.00;58188.94;10431598;28;20072;-82
2023/01/12 18:31:30;;;;;;;0.00;0.00;;;;;;;-146.30;100.00;58188.94;10436276;28;20120;-82
2023/01/12 18:36:34;;;;;;;0.00;0.00;;;;;;;-146.30;100.00;58188.94;10429855;28;20064;-82
2023/01/12 18:57:42;;;;;;;0.45;0.25;;;;;;;-146.30;100.00;58188.94;10419124;28;20103;-81
2023/01/12 19:02:44;;;;;;;0.10;0.10;;;;;;;-146.30;100.00;58188.94;10435893;28;20580;-82
2023/01/12 19:18:19;;;;;;;0.30;0.13;;;;;;;-146.30;100.00;58188.94;10431058;28;20082;-76
2023/01/12 19:28:55;;;;;;;0.70;0.43;;;;;;;-146.30;100.00;58188.94;10414258;28;20072;-80
2023/01/12 19:33:57;;;;;;;0.20;0.10;;;;;;;-146.30;100.00;58188.94;10425619;28;20119;-80
2023/01/12 19:39:00;;;;;;;0.28;0.15;;;;;;;-146.30;100.00;58188.94;10426679;28;20049;-80
2023/01/12 19:44:04;;;;;;;0.00;0.00;;;;;;;-146.30;100.00;58188.94;10413313;28;20041;-80
2023/01/12 19:49:06;;;;;;;0.05;0.05;;;;;;;-146.30;100.00;58188.94;10418350;28;20555;-79
2023/01/12 19:54:08;;;;;;;0.10;0.10;;;;;;;-146.30;100.00;58188.94;10440826;28;20043;-80
2023/01/12 19:59:12;;;;;;;0.00;0.00;;;;;;;-146.30;100.00;58188.94;10418262;28;20486;-80
2023/01/12 20:04:14;;;;;;;0.32;0.32;;;;;;;-146.30;100.00;58188.94;10412898;28;20034;-80
2023/01/12 20:09:15;;;;;;;0.40;0.25;;;;;;;-146.30;100.00;58188.94;10412560;28;20068;-80
2023/01/12 20:14:17;;;;;;;0.43;0.10;;;;;;;-146.30;100.00;58188.94;10413430;28;20505;-81
2023/01/12 20:19:19;;;;;;;0.03;0.03;;;;;;;-146.30;100.00;58188.94;10400847;28;20604;-80
2023/01/12 20:24:21;;;;;;;0.05;0.05;;;;;;;-146.30;100.00;58188.94;10412908;28;20524;-81
2023/01/12 20:29:22;;;;;;;0.10;0.10;;;;;;;-146.30;100.00;58188.94;10411986;28;20045;-81
2023/01/12 20:34:24;;;;;;;0.20;0.17;;;;;;;-146.30;100.00;58188.94;10427933;28;20048;-81
2023/01/12 20:39:28;;;;;;;0.03;0.03;;;;;;;-146.30;100.00;58188.94;10411601;28;20045;-81
2023/01/12 20:44:30;;;;;;;1.65;0.20;;;;;;;-146.30;100.00;58188.94;10410870;28;20046;-81
2023/01/12 20:49:31;;;;;;;0.47;0.13;;;;;;;-146.30;100.00;58188.94;10411359;28;20084;-80
2023/01/12 20:54:33;;;;;;;0.22;0.20;;;;;;;-146.30;100.00;58188.94;10410902;28;20049;-81
2023/01/12 20:59:38;;;;;;;0.00;0.00;;;;;;;-146.30;100.00;58188.94;10411765;28;20050;-81
2023/01/12 21:04:40;;;;;;;0.43;0.10;;;;;;;-146.30;100.00;58188.94;10413951;28;20076;-82
2023/01/12 21:09:41;;;;;;;0.75;0.17;;;;;;;-146.30;100.00;58188.94;10412683;28;20092;-80
2023/01/12 21:14:43;;;;;;;0.10;0.00;;;;;;;-146.30;100.00;58188.94;10414980;28;20032;-80
2023/01/12 21:19:45;;;;;;;0.00;0.00;;;;;;;-146.30;100.00;58188.94;10424048;28;20041;-80
2023/01/12 21:24:46;;;;;;;0.30;0.28;;;;;;;-146.30;100.00;58188.94;10422601;28;20045;-80
2023/01/12 21:29:51;;;;;;;0.55;0.30;;;;;;;-146.30;100.00;58188.94;10393890;28;20568;-81
2023/01/12 21:34:52;;;;;;;0.00;0.00;;;;;;;-146.30;100.00;58188.94;10401916;28;20072;-80
2023/01/12 21:39:54;;;;;;;0.03;0.03;;;;;;;-146.30;100.00;58188.94;10383769;28;20077;-80
2023/01/12 21:44:55;;;;;;;0.52;0.10;;;;;;;-146.30;100.00;58188.94;10402520;28;20372;-81
2023/01/12 21:49:57;;;;;;;0.75;0.35;;;;;;;-146.30;100.00;58188.94;10374327;28;20497;-80
2023/01/12 21:54:59;;;;;;;0.38;0.20;;;;;;;-146.30;100.00;58188.94;10393710;28;20064;-81
2023/01/12 22:00:00;;;;;;;0.20;0.10;;;;;;;-146.30;100.00;58188.94;10397916;28;20080;-82
2023/01/12 22:05:12;;;;;;;0.03;0.03;;;;;;;-146.30;100.00;58188.94;10416771;28;20057;-81
2023/01/12 22:10:18;;;;;;;0.10;0.10;;;;;;;-146.30;100.00;58188.94;10424302;28;20041;-80
2023/01/12 22:15:22;;;;;;;0.00;0.00;;;;;;;-146.30;100.00;58188.94;10394054;28;20628;-81
2023/01/12 22:20:26;;;;;;;0.00;0.00;;;;;;;-146.30;100.00;58188.94;10397991;28;20125;-81
2023/01/12 22:25:27;;;;;;;0.10;0.10;;;;;;;-146.30;100.00;58188.94;10402087;28;20477;-81
2023/01/12 22:30:29;;;;;;;0.00;0.00;;;;;;;-146.30;100.00;58188.94;10406610;28;20045;-80
2023/01/12 22:35:30;;;;;;;0.45;0.25;;;;;;;-146.30;100.00;58188.94;10402789;28;20046;-80
2023/01/12 22:40:32;;;;;;;0.00;0.00;;;;;;;-146.30;100.00;58188.94;10385018;28;20049;-81
2023/01/12 22:45:36;;;;;;;0.10;0.10;;;;;;;-146.30;100.00;58188.94;10398888;28;20397;-79
2023/01/12 22:50:38;;;;;;;0.60;0.05;;;;;;;-146.30;100.00;58188.94;10426373;28;20076;-79
2023/01/12 22:55:39;;;;;;;0.00;0.00;;;;;;;-146.30;100.00;58188.94;10408153;28;20390;-79
2023/01/12 23:00:42;;;;;;;0.08;0.08;;;;;;;-146.30;100.00;58188.94;10414228;28;20042;-80
2023/01/12 23:05:47;;;;;;;0.00;0.00;;;;;;;-146.30;100.00;58188.94;10404347;28;20053;-79
2023/01/12 23:10:49;;;;;;;0.10;0.10;;;;;;;-146.30;100.00;58188.94;10412548;28;20113;-79
2023/01/12 23:15:55;;;;;;;0.00;0.00;;;;;;;-146.30;100.00;58188.94;10393580;28;20099;-79
2023/01/12 23:21:00;;;;;;;0.55;0.20;;;;;;;-146.30;100.00;58188.94;10397392;28;20049;-80
2023/01/12 23:26:05;;;;;;;0.20;0.20;;;;;;;-146.30;100.00;58188.94;10420161;28;20037;-80
2023/01/12 23:31:13;;;;;;;1.52;0.98;;;;;;;-146.30;100.00;58188.94;10438937;28;20060;-80
2023/01/12 23:36:17;;;;;;;0.63;0.10;;;;;;;-146.30;100.00;58188.94;10437318;28;20473;-80
2023/01/12 23:41:21;;;;;;;0.00;0.00;;;;;;;-146.30;100.00;58188.94;10431602;28;20053;-79
2023/01/12 23:46:23;;;;;;;1.08;0.10;;;;;;;-146.30;100.00;58188.94;10445855;28;20120;-79
2023/01/12 23:51:27;;;;;;;0.40;0.40;;;;;;;-146.30;100.00;58188.94;10429286;28;20060;-79
2023/01/12 23:56:33;;;;;;;0.00;0.00;;;;;;;-146.30;100.00;58188.94;10414700;28;20076;-79
